Time;durP1;ratioP1;P1;durP2;ratioP2;P2;SDS_P1;SDS_P2;PMS_P1;PMS_P2;Temp;Humidity;BMP_temperature;BMP_pressure;BME280_temperature;BME280_humidity;BME280_pressure;Samples;Min_cycle;Max_cycle;Signal;HPM_P1;HPM_P2
2022/04/19 00:01:10;;;;;;;2.35;1.13;;;22.50;38.90;;;;;;4980441;28;20096;-64
2022/04/19 00:03:36;;;;;;;2.55;1.00;;;22.50;38.90;;;;;;4976826;28;20037;-64
2022/04/19 00:06:03;;;;;;;2.40;1.10;;;22.50;38.90;;;;;;4986258;28;20025;-63
2022/04/19 00:08:28;;;;;;;1.60;0.98;;;22.50;38.90;;;;;;4987893;28;20490;-63
2022/04/19 00:10:54;;;;;;;1.88;1.00;;;22.50;38.90;;;;;;4985859;28;20096;-64
2022/04/19 00:13:21;;;;;;;1.85;1.13;;;22.50;38.90;;;;;;4984441;28;20041;-64
2022/04/19 00:15:47;;;;;;;1.50;0.88;;;22.50;38.90;;;;;;4978625;28;20382;-63
2022/04/19 00:18:15;;;;;;;2.42;1.00;;;22.50;38.90;;;;;;4976021;28;20037;-63
2022/04/19 00:20:44;;;;;;;1.15;0.80;;;22.50;38.90;;;;;;4995440;28;20026;-64
2022/04/19 00:23:15;;;;;;;2.53;1.08;;;22.40;38.90;;;;;;4976026;28;20022;-64
2022/04/19 00:25:42;;;;;;;2.03;0.90;;;22.40;38.90;;;;;;4978987;28;20049;-63
2022/04/19 00:28:09;;;;;;;2.30;0.90;;;22.40;38.90;;;;;;4978187;28;20065;-63
2022/04/19 00:30:36;;;;;;;3.00;1.10;;;22.40;38.90;;;;;;4980180;28;20054;-65
2022/04/19 00:33:02;;;;;;;2.25;1.00;;;22.40;38.90;;;;;;4978270;28;20102;-63
2022/04/19 00:35:28;;;;;;;1.75;0.90;;;22.50;39.00;;;;;;4981904;28;20052;-65
2022/04/19 00:37:54;;;;;;;2.10;1.00;;;22.50;39.00;;;;;;4988221;28;20038;-63
2022/04/19 00:40:26;;;;;;;1.50;0.85;;;22.40;38.90;;;;;;4987999;28;20049;-63
2022/04/19 00:42:54;;;;;;;1.75;1.17;;;22.40;38.90;;;;;;4987532;28;20378;-64
2022/04/19 00:45:22;;;;;;;2.22;1.17;;;22.40;38.90;;;;;;4985001;28;20026;-63
2022/04/19 00:47:49;;;;;;;1.70;1.00;;;22.40;39.00;;;;;;4984822;28;20102;-64
2022/04/19 00:50:15;;;;;;;1.83;0.82;;;22.40;39.00;;;;;;4984859;28;20145;-64
2022/04/19 00:52:43;;;;;;;1.85;0.90;;;22.40;39.00;;;;;;4978087;28;20411;-63
2022/04/19 00:55:10;;;;;;;1.70;1.17;;;22.40;39.00;;;;;;4979899;28;20038;-64
2022/04/19 00:57:41;;;;;;;1.25;0.70;;;22.40;39.00;;;;;;4978670;28;20120;-65
2022/04/19 01:00:09;;;;;;;1.45;0.90;;;22.40;39.00;;;;;;4983869;28;20052;-62
2022/04/19 01:02:36;;;;;;;2.85;0.90;;;22.40;39.00;;;;;;4978157;28;20049;-64
2022/04/19 01:05:03;;;;;;;2.25;0.90;;;22.40;39.00;;;;;;4978829;28;20029;-65
2022/04/19 01:07:30;;;;;;;2.10;1.00;;;22.40;39.00;;;;;;4978772;28;20497;-65
2022/04/19 01:09:56;;;;;;;1.80;1.00;;;22.40;39.00;;;;;;4978606;28;20030;-64
2022/04/19 01:15:09;;;;;;;1.50;0.90;;;22.40;39.10;;;;;;4977934;28;20040;-66
2022/04/19 01:17:39;;;;;;;1.63;0.80;;;22.40;39.10;;;;;;4977937;28;20475;-63
2022/04/19 01:20:10;;;;;;;2.17;0.90;;;22.40;39.10;;;;;;4979026;28;20884;-63
2022/04/19 01:22:40;;;;;;;2.03;0.90;;;22.40;39.10;;;;;;4977994;28;20022;-63
2022/04/19 01:25:07;;;;;;;2.47;1.00;;;22.30;39.00;;;;;;4978311;28;20029;-63
2022/04/19 01:27:34;;;;;;;1.70;0.90;;;22.40;39.10;;;;;;4979688;28;20149;-64
2022/04/19 01:30:04;;;;;;;1.55;0.80;;;22.30;39.00;;;;;;4981843;28;20121;-65
2022/04/19 01:32:32;;;;;;;1.08;0.80;;;22.40;39.10;;;;;;4982009;28;20064;-65
2022/04/19 01:35:07;;;;;;;1.50;0.90;;;22.30;39.00;;;;;;4980405;28;20046;-63
2022/04/19 01:37:41;;;;;;;1.63;0.90;;;22.30;39.00;;;;;;4981044;28;20041;-65
2022/04/19 01:40:18;;;;;;;1.88;0.90;;;22.30;39.00;;;;;;4981326;28;20026;-64
2022/04/19 01:42:48;;;;;;;2.60;0.90;;;22.40;39.10;;;;;;4981791;28;20026;-62
2022/04/19 01:45:15;;;;;;;2.67;0.80;;;22.30;39.00;;;;;;4982603;28;20456;-64
2022/04/19 01:47:42;;;;;;;1.42;0.80;;;22.30;39.00;;;;;;4979320;28;20033;-65
2022/04/19 01:50:10;;;;;;;1.33;0.82;;;22.30;39.00;;;;;;4982682;28;20029;-65
2022/04/19 01:52:40;;;;;;;1.08;0.80;;;22.30;39.00;;;;;;4980458;28;20126;-64
2022/04/19 01:55:07;;;;;;;2.03;0.90;;;22.30;39.10;;;;;;4985932;28;20175;-65
2022/04/19 01:57:33;;;;;;;1.42;0.70;;;22.30;39.10;;;;;;4984805;28;20179;-65
2022/04/19 01:59:59;;;;;;;1.60;0.80;;;22.30;39.00;;;;;;4988052;28;20038;-63
2022/04/19 02:02:25;;;;;;;1.20;0.80;;;22.30;39.10;;;;;;4984171;28;20045;-65
2022/04/19 02:04:51;;;;;;;1.60;0.70;;;22.30;39.10;;;;;;4992514;28;20022;-64
2022/04/19 02:07:17;;;;;;;2.38;0.82;;;22.30;39.10;;;;;;4991210;28;20373;-64
2022/04/19 02:09:47;;;;;;;1.30;0.80;;;22.30;39.00;;;;;;4991228;28;20037;-63
2022/04/19 02:12:13;;;;;;;1.55;0.80;;;22.30;39.00;;;;;;4991142;28;20517;-65
2022/04/19 02:14:41;;;;;;;1.35;0.80;;;22.30;39.10;;;;;;4992807;28;20482;-62
2022/04/19 02:17:10;;;;;;;2.08;0.98;;;22.30;39.10;;;;;;4990421;28;20540;-65
2022/04/19 02:19:36;;;;;;;1.33;0.90;;;22.30;39.10;;;;;;4992305;28;20561;-64
2022/04/19 02:22:05;;;;;;;2.03;0.80;;;22.30;39.10;;;;;;4990282;28;20037;-65
2022/04/19 02:24:31;;;;;;;1.65;0.93;;;22.30;39.00;;;;;;4991146;28;20026;-64
2022/04/19 02:26:57;;;;;;;1.40;0.80;;;22.30;39.00;;;;;;4991832;28;20041;-62
2022/04/19 02:29:25;;;;;;;1.35;0.75;;;22.20;39.00;;;;;;4989362;28;20044;-63
2022/04/19 02:31:51;;;;;;;1.17;0.80;;;22.20;39.00;;;;;;4984419;28;20046;-63
2022/04/19 02:34:18;;;;;;;1.20;0.70;;;22.20;39.00;;;;;;4988267;28;21434;-63
2022/04/19 02:36:44;;;;;;;1.67;0.90;;;22.30;39.00;;;;;;4987481;28;20073;-63
2022/04/19 02:39:11;;;;;;;1.23;0.90;;;22.20;39.00;;;;;;4991378;28;20105;-63
2022/04/19 02:41:37;;;;;;;1.63;0.90;;;22.20;39.00;;;;;;4989432;28;20053;-63
2022/04/19 02:44:04;;;;;;;1.58;0.75;;;22.20;39.00;;;;;;4989072;28;20033;-63
2022/04/19 02:46:30;;;;;;;1.50;0.90;;;22.20;39.00;;;;;;4984847;28;20125;-61
2022/04/19 02:48:59;;;;;;;1.92;0.77;;;22.20;39.00;;;;;;4987607;28;20030;-64
2022/04/19 02:51:25;;;;;;;1.15;0.80;;;22.20;39.00;;;;;;4987670;28;20521;-64
2022/04/19 02:53:53;;;;;;;1.58;0.80;;;22.20;39.00;;;;;;4987539;28;20117;-63
2022/04/19 02:56:19;;;;;;;1.35;0.80;;;22.20;39.00;;;;;;4990087;28;20034;-63
2022/04/19 02:58:45;;;;;;;1.42;0.95;;;22.20;39.00;;;;;;4992320;28;20038;-63
2022/04/19 03:01:11;;;;;;;1.70;0.80;;;22.20;39.00;;;;;;4984223;28;20121;-65
2022/04/19 03:03:37;;;;;;;1.20;0.80;;;22.20;39.00;;;;;;4985154;28;20578;-64
2022/04/19 03:06:03;;;;;;;1.40;0.90;;;22.20;39.00;;;;;;4989982;28;20062;-65
2022/04/19 03:08:32;;;;;;;1.10;0.65;;;22.20;39.00;;;;;;4988258;28;20042;-64
2022/04/19 03:10:58;;;;;;;1.70;0.80;;;22.10;38.90;;;;;;4990174;28;20148;-63
2022/04/19 03:13:24;;;;;;;1.60;0.90;;;22.20;39.00;;;;;;4989570;28;20149;-63
2022/04/19 03:15:50;;;;;;;1.40;0.88;;;22.10;38.90;;;;;;4982892;28;20038;-63
2022/04/19 03:18:15;;;;;;;1.17;0.77;;;22.20;39.00;;;;;;4985485;28;20045;-65
2022/04/19 03:20:43;;;;;;;1.42;0.80;;;22.10;38.90;;;;;;4986486;28;20531;-65
2022/04/19 03:28:37;;;;;;;1.25;0.80;;;22.10;38.90;;;;;;4986197;28;20608;-66
2022/04/19 03:31:03;;;;;;;1.65;0.70;;;22.10;38.90;;;;;;4984162;28;20050;-64
2022/04/19 03:33:28;;;;;;;0.98;0.70;;;22.10;38.90;;;;;;4985904;28;20394;-65
2022/04/19 03:35:56;;;;;;;1.40;0.80;;;22.10;38.90;;;;;;4985922;28;20137;-65
2022/04/19 03:38:22;;;;;;;0.93;0.70;;;22.10;38.90;;;;;;4987977;28;20790;-63
2022/04/19 03:40:48;;;;;;;1.83;0.80;;;22.10;38.90;;;;;;4988333;28;20036;-64
2022/04/19 03:43:14;;;;;;;2.38;1.33;;;22.10;38.90;;;;;;4987596;28;20026;-64
2022/04/19 03:45:40;;;;;;;1.45;0.75;;;22.10;38.90;;;;;;4982606;28;20029;-66
2022/04/19 03:48:06;;;;;;;1.25;0.80;;;22.10;38.90;;;;;;4983731;28;20467;-63
2022/04/19 03:50:32;;;;;;;0.98;0.73;;;22.10;39.40;;;;;;4988870;28;20067;-64
2022/04/19 03:52:58;;;;;;;0.98;0.82;;;22.10;38.90;;;;;;4988206;28;20029;-64
2022/04/19 03:55:24;;;;;;;1.40;0.88;;;22.10;38.90;;;;;;4989620;28;20026;-65
2022/04/19 03:57:50;;;;;;;1.08;0.75;;;22.10;38.90;;;;;;4985307;28;20037;-64
2022/04/19 04:00:15;;;;;;;1.13;0.70;;;22.10;38.90;;;;;;4986939;28;20085;-65
2022/04/19 04:02:41;;;;;;;1.50;0.85;;;22.10;38.90;;;;;;4981653;28;20454;-65
2022/04/19 04:05:07;;;;;;;0.98;0.70;;;22.10;38.90;;;;;;4989359;28;20389;-62
2022/04/19 04:07:38;;;;;;;1.13;0.70;;;22.10;38.90;;;;;;4986677;28;20119;-64
2022/04/19 04:10:04;;;;;;;1.00;0.70;;;22.10;38.90;;;;;;4987187;28;20022;-60
2022/04/19 04:12:30;;;;;;;1.10;0.73;;;22.10;38.90;;;;;;4987010;28;20128;-63
2022/04/19 04:14:55;;;;;;;1.02;0.70;;;22.10;38.90;;;;;;4989720;28;20686;-63
2022/04/19 04:17:21;;;;;;;0.75;0.60;;;22.10;38.90;;;;;;4985768;28;20038;-65
2022/04/19 04:19:47;;;;;;;1.50;0.70;;;22.10;38.90;;;;;;4989541;28;20029;-65
2022/04/19 04:22:12;;;;;;;0.63;0.60;;;22.10;38.90;;;;;;4988030;28;20048;-63
2022/04/19 04:24:38;;;;;;;1.17;0.65;;;22.10;38.90;;;;;;4989213;28;20029;-63
2022/04/19 04:27:04;;;;;;;0.98;0.65;;;22.10;38.90;;;;;;4986486;28;20033;-65
2022/04/19 04:29:30;;;;;;;1.08;0.70;;;22.10;38.90;;;;;;4987385;28;20037;-63
2022/04/19 04:31:55;;;;;;;1.27;0.70;;;22.10;38.90;;;;;;4986217;28;20104;-65
2022/04/19 04:34:21;;;;;;;1.30;0.73;;;22.10;38.90;;;;;;4981272;28;20037;-64
2022/04/19 04:36:47;;;;;;;1.30;0.80;;;22.10;39.00;;;;;;4986216;28;20083;-64
2022/04/19 04:39:14;;;;;;;1.00;0.80;;;22.10;38.90;;;;;;4984251;28;20029;-65
2022/04/19 04:41:40;;;;;;;1.20;0.70;;;22.10;38.90;;;;;;4985745;28;20121;-63
2022/04/19 04:44:05;;;;;;;1.33;0.77;;;22.10;38.90;;;;;;4983955;28;20030;-64
2022/04/19 04:51:59;;;;;;;1.27;0.68;;;22.10;38.90;;;;;;4983659;28;21021;-63
2022/04/19 04:54:25;;;;;;;1.17;0.70;;;22.10;38.90;;;;;;4984966;28;20034;-63
2022/04/19 04:56:52;;;;;;;0.70;0.70;;;22.10;39.00;;;;;;4988106;28;20112;-62
2022/04/19 04:59:18;;;;;;;0.73;0.60;;;22.00;38.90;;;;;;4984592;28;20025;-62
2022/04/19 05:01:44;;;;;;;1.42;0.82;;;22.10;38.90;;;;;;4987232;28;20176;-61
2022/04/19 05:04:09;;;;;;;1.17;0.70;;;22.00;38.90;;;;;;4981398;28;20053;-64
2022/04/19 05:06:35;;;;;;;1.20;0.70;;;22.00;38.90;;;;;;4985528;28;20710;-65
2022/04/19 05:09:01;;;;;;;0.60;0.60;;;22.00;38.90;;;;;;4986457;28;20141;-64
2022/04/19 05:11:28;;;;;;;1.15;0.70;;;22.00;38.90;;;;;;4987048;28;20088;-62
2022/04/19 05:13:54;;;;;;;1.08;0.70;;;22.00;39.40;;;;;;4987412;28;20026;-63
2022/04/19 05:16:20;;;;;;;0.80;0.60;;;22.00;38.90;;;;;;5016982;28;20038;-63
2022/04/19 05:18:45;;;;;;;0.98;0.80;;;22.10;39.00;;;;;;4981966;28;20042;-63
2022/04/19 05:21:11;;;;;;;0.93;0.70;;;22.00;38.90;;;;;;4977667;28;20491;-63
2022/04/19 05:23:37;;;;;;;0.70;0.70;;;22.00;38.90;;;;;;4984287;28;20033;-65
2022/04/19 05:26:10;;;;;;;1.20;0.75;;;22.00;38.90;;;;;;5000619;28;20058;-64
2022/04/19 05:28:35;;;;;;;1.10;0.80;;;22.00;38.90;;;;;;4988265;28;20447;-62
2022/04/19 05:31:01;;;;;;;1.60;0.77;;;22.00;38.90;;;;;;4981116;28;20042;-64
2022/04/19 05:33:27;;;;;;;1.95;0.98;;;22.00;38.90;;;;;;4988120;28;20045;-64
2022/04/19 05:35:52;;;;;;;1.05;0.70;;;22.00;38.90;;;;;;4981325;28;20033;-65
2022/04/19 05:38:18;;;;;;;1.08;0.75;;;22.00;38.90;;;;;;4986400;28;20463;-65
2022/04/19 05:40:44;;;;;;;0.80;0.60;;;22.00;38.90;;;;;;4984316;28;20065;-64
2022/04/19 05:43:09;;;;;;;0.75;0.65;;;22.00;38.90;;;;;;4983953;28;20025;-64
2022/04/19 05:45:35;;;;;;;1.80;0.98;;;22.00;38.90;;;;;;4985475;28;20022;-65
2022/04/19 05:48:00;;;;;;;1.10;0.70;;;22.00;38.90;;;;;;4980588;28;20034;-64
2022/04/19 05:50:26;;;;;;;0.88;0.70;;;22.00;38.90;;;;;;4980143;28;20095;-64
2022/04/19 05:52:52;;;;;;;1.00;0.60;;;22.00;38.90;;;;;;4985042;28;20040;-65
2022/04/19 05:55:18;;;;;;;1.35;0.70;;;22.00;38.90;;;;;;4981761;28;20121;-65
2022/04/19 05:57:44;;;;;;;1.10;0.80;;;22.00;38.90;;;;;;4986388;28;20168;-65
2022/04/19 06:00:09;;;;;;;1.08;0.70;;;22.00;38.90;;;;;;4986684;28;20060;-64
2022/04/19 06:05:19;;;;;;;1.15;0.70;;;22.00;38.90;;;;;;4984464;28;20809;-64
2022/04/19 06:07:47;;;;;;;0.88;0.70;;;22.00;38.90;;;;;;4981328;28;20034;-64
2022/04/19 06:10:14;;;;;;;0.90;0.70;;;22.00;38.90;;;;;;4984559;28;20161;-64
2022/04/19 06:12:40;;;;;;;1.40;0.75;;;22.00;38.90;;;;;;4989241;28;20107;-64
2022/04/19 06:15:06;;;;;;;1.05;0.70;;;22.00;38.90;;;;;;4985163;28;20042;-62
2022/04/19 06:17:35;;;;;;;1.08;0.70;;;22.00;38.90;;;;;;4986042;28;20048;-64
2022/04/19 06:20:01;;;;;;;0.95;0.70;;;22.00;38.90;;;;;;4985751;28;20556;-66
2022/04/19 06:22:27;;;;;;;1.27;0.80;;;22.00;38.90;;;;;;4978360;28;20129;-64
2022/04/19 06:24:55;;;;;;;1.08;0.70;;;22.00;38.90;;;;;;4988477;28;20080;-65
2022/04/19 06:27:21;;;;;;;1.08;0.80;;;22.00;38.90;;;;;;4984642;28;20486;-65
2022/04/19 06:29:46;;;;;;;1.00;0.70;;;22.00;38.90;;;;;;4988465;28;20037;-64
2022/04/19 06:32:13;;;;;;;0.93;0.70;;;22.00;38.90;;;;;;4985558;28;20517;-66
2022/04/19 06:34:39;;;;;;;1.20;0.70;;;22.00;39.00;;;;;;4983117;28;20060;-64
2022/04/19 06:37:05;;;;;;;0.63;0.55;;;22.00;38.90;;;;;;4979935;28;20033;-63
2022/04/19 06:39:30;;;;;;;0.85;0.70;;;22.00;39.00;;;;;;4986257;28;20029;-64
2022/04/19 06:41:56;;;;;;;1.00;0.70;;;22.00;38.90;;;;;;4984756;28;20033;-64
2022/04/19 06:44:22;;;;;;;0.85;0.70;;;21.90;38.90;;;;;;4987802;28;20104;-64
2022/04/19 06:46:49;;;;;;;0.90;0.70;;;21.90;38.90;;;;;;4979784;28;20029;-65
2022/04/19 06:49:15;;;;;;;1.10;0.80;;;21.90;38.90;;;;;;4987252;28;20045;-64
2022/04/19 06:51:41;;;;;;;1.33;0.70;;;21.90;38.90;;;;;;4984499;28;21063;-65
2022/04/19 06:54:09;;;;;;;1.08;0.70;;;21.90;38.90;;;;;;4992220;28;20022;-64
2022/04/19 06:56:35;;;;;;;0.70;0.63;;;21.90;38.90;;;;;;4986102;28;20342;-61
2022/04/19 06:59:01;;;;;;;1.52;0.70;;;21.90;38.90;;;;;;4984925;28;20474;-64
2022/04/19 07:01:27;;;;;;;1.23;0.85;;;21.90;38.90;;;;;;4986265;28;20095;-65
2022/04/19 07:03:53;;;;;;;1.10;0.80;;;21.90;38.90;;;;;;4989974;28;20136;-62
2022/04/19 07:06:19;;;;;;;0.90;0.70;;;21.90;38.90;;;;;;4989628;28;20041;-65
2022/04/19 07:08:45;;;;;;;0.75;0.65;;;21.90;39.00;;;;;;4985072;28;20172;-65
2022/04/19 07:11:15;;;;;;;1.20;0.70;;;21.90;38.90;;;;;;5021200;28;20064;-64
2022/04/19 07:13:42;;;;;;;0.80;0.70;;;21.90;38.90;;;;;;4990011;28;20117;-62
2022/04/19 07:16:08;;;;;;;0.90;0.70;;;21.90;39.00;;;;;;4989353;28;20128;-65
2022/04/19 07:18:34;;;;;;;1.52;0.80;;;21.90;39.00;;;;;;4986218;28;20046;-64
2022/04/19 07:26:47;;;;;;;1.15;0.70;;;21.90;39.00;;;;;;4986217;28;20128;-64
2022/04/19 07:29:18;;;;;;;0.82;0.80;;;21.90;38.90;;;;;;4982658;28;20112;-65
2022/04/19 07:31:46;;;;;;;0.60;0.60;;;21.90;39.00;;;;;;4982059;28;20034;-64
2022/04/19 07:34:12;;;;;;;0.98;0.70;;;21.90;39.00;;;;;;4989002;28;20036;-64
2022/04/19 07:36:41;;;;;;;0.98;0.80;;;21.90;38.90;;;;;;4982463;28;20042;-65
2022/04/19 07:39:12;;;;;;;1.10;0.90;;;21.90;38.90;;;;;;4985580;28;20054;-64
2022/04/19 07:41:39;;;;;;;0.88;0.70;;;21.90;38.90;;;;;;4988208;28;20132;-65
2022/04/19 07:44:05;;;;;;;0.70;0.60;;;21.90;38.90;;;;;;4985614;28;20088;-65
2022/04/19 07:46:31;;;;;;;0.60;0.60;;;21.90;38.90;;;;;;5000003;28;20033;-64
2022/04/19 07:48:57;;;;;;;0.85;0.60;;;21.90;39.00;;;;;;4987691;28;20282;-64
2022/04/19 07:51:24;;;;;;;1.05;0.70;;;21.90;39.00;;;;;;4983246;28;20136;-64
2022/04/19 07:53:50;;;;;;;0.75;0.70;;;21.90;38.90;;;;;;4985964;28;20129;-64
2022/04/19 07:56:15;;;;;;;0.80;0.70;;;21.90;38.90;;;;;;4986544;28;21070;-62
2022/04/19 07:58:43;;;;;;;0.70;0.63;;;21.90;38.90;;;;;;4990690;28;20026;-63
2022/04/19 08:01:09;;;;;;;0.88;0.70;;;21.90;38.90;;;;;;4984952;28;20581;-65
2022/04/19 08:03:35;;;;;;;1.08;0.85;;;21.90;38.90;;;;;;4986810;28;20040;-64
2022/04/19 08:06:01;;;;;;;1.00;0.70;;;21.90;38.90;;;;;;4986220;28;20025;-65
2022/04/19 08:08:27;;;;;;;0.98;0.80;;;21.90;38.90;;;;;;4985748;28;20038;-64
2022/04/19 08:10:52;;;;;;;0.77;0.70;;;21.90;39.00;;;;;;4986344;28;20634;-61
2022/04/19 08:13:18;;;;;;;0.70;0.60;;;21.90;38.90;;;;;;4987019;28;20370;-63
2022/04/19 08:15:44;;;;;;;1.08;0.80;;;21.90;38.90;;;;;;4990256;28;20112;-62
2022/04/19 08:18:13;;;;;;;1.38;0.73;;;21.90;38.90;;;;;;4986307;28;20796;-62
2022/04/19 08:20:42;;;;;;;0.73;0.68;;;22.00;39.00;;;;;;4987712;28;20057;-64
2022/04/19 08:23:09;;;;;;;1.92;0.82;;;22.00;39.00;;;;;;4976349;28;20034;-64
2022/04/19 08:25:35;;;;;;;1.00;0.70;;;21.90;38.90;;;;;;4984727;28;20116;-64
2022/04/19 08:28:01;;;;;;;0.82;0.63;;;21.90;38.90;;;;;;4988952;28;20533;-64
2022/04/19 08:30:26;;;;;;;0.90;0.70;;;22.00;39.00;;;;;;4984558;28;20041;-65
2022/04/19 08:32:52;;;;;;;0.88;0.70;;;22.00;39.00;;;;;;4982709;28;20054;-62
2022/04/19 08:35:18;;;;;;;1.02;0.82;;;22.00;39.00;;;;;;4984087;28;20037;-65
2022/04/19 08:37:43;;;;;;;0.80;0.70;;;22.00;39.00;;;;;;4983290;28;20113;-65
2022/04/19 08:40:11;;;;;;;0.90;0.70;;;22.00;39.00;;;;;;4984540;28;20038;-65
2022/04/19 08:42:40;;;;;;;0.68;0.65;;;22.00;39.00;;;;;;4979985;28;20033;-65
2022/04/19 08:45:09;;;;;;;0.85;0.70;;;22.00;39.00;;;;;;4984910;28;20030;-64
2022/04/19 08:47:43;;;;;;;0.90;0.75;;;22.00;39.00;;;;;;4980828;28;20555;-64
2022/04/19 08:50:17;;;;;;;1.05;0.70;;;22.00;39.00;;;;;;4980354;28;20195;-64
2022/04/19 08:52:44;;;;;;;0.75;0.70;;;22.00;39.00;;;;;;4986662;28;20036;-65
2022/04/19 08:57:56;;;;;;;0.70;0.70;;;22.00;39.00;;;;;;4977712;28;20040;-65
2022/04/19 09:00:23;;;;;;;1.23;0.80;;;22.00;39.00;;;;;;4983955;28;20037;-64
2022/04/19 09:02:58;;;;;;;1.17;0.70;;;22.00;39.00;;;;;;4979728;28;20030;-65
2022/04/19 09:05:26;;;;;;;1.05;0.60;;;22.00;39.00;;;;;;4985039;28;20963;-64
2022/04/19 09:07:54;;;;;;;1.02;0.80;;;22.00;39.00;;;;;;4982722;28;20037;-64
2022/04/19 09:10:32;;;;;;;0.80;0.70;;;22.00;39.00;;;;;;4984490;28;20485;-64
2022/04/19 09:13:01;;;;;;;0.80;0.70;;;22.00;39.00;;;;;;4980991;28;20129;-64
2022/04/19 09:15:38;;;;;;;1.25;0.65;;;22.00;39.00;;;;;;4987059;28;20592;-64
2022/04/19 09:18:05;;;;;;;1.08;0.70;;;22.00;39.00;;;;;;4981888;28;20037;-65
2022/04/19 09:20:31;;;;;;;0.73;0.70;;;22.00;39.00;;;;;;4982665;28;20040;-64
2022/04/19 09:23:15;;;;;;;0.90;0.70;;;22.00;39.00;;;;;;4982742;28;20073;-64
2022/04/19 09:25:41;;;;;;;1.10;0.68;;;22.00;39.00;;;;;;4980765;28;20998;-65
2022/04/19 09:28:18;;;;;;;1.27;0.70;;;22.00;38.90;;;;;;4982931;28;20168;-63
2022/04/19 09:30:57;;;;;;;0.90;0.70;;;22.00;38.90;;;;;;4999959;28;20038;-63
2022/04/19 09:33:24;;;;;;;0.85;0.70;;;22.00;38.90;;;;;;4980981;28;20045;-63
2022/04/19 09:35:54;;;;;;;1.00;0.70;;;22.00;39.00;;;;;;4981375;28;20057;-65
2022/04/19 09:38:42;;;;;;;0.95;0.70;;;22.00;38.90;;;;;;4982644;28;20709;-65
2022/04/19 09:41:10;;;;;;;0.90;0.77;;;22.10;38.90;;;;;;4981933;28;20044;-62
2022/04/19 09:43:37;;;;;;;1.13;0.80;;;22.10;38.90;;;;;;4980595;28;20030;-63
2022/04/19 09:46:04;;;;;;;1.15;0.80;;;22.00;38.80;;;;;;4985871;28;20033;-63
2022/04/19 09:48:35;;;;;;;1.23;0.80;;;22.10;38.90;;;;;;4982971;28;20560;-60
2022/04/19 09:51:06;;;;;;;0.95;0.70;;;22.10;38.90;;;;;;4979933;28;20096;-63
2022/04/19 09:53:46;;;;;;;0.90;0.70;;;22.10;38.90;;;;;;4979850;28;20076;-62
2022/04/19 09:56:13;;;;;;;1.10;0.70;;;22.10;38.90;;;;;;4983970;28;20667;-62
2022/04/19 09:58:39;;;;;;;1.42;0.80;;;22.00;38.80;;;;;;4983189;28;20474;-59
2022/04/19 10:01:05;;;;;;;1.13;0.70;;;22.10;38.80;;;;;;4981400;28;20163;-62
2022/04/19 10:09:19;;;;;;;0.80;0.70;;;22.10;38.80;;;;;;4979184;28;20045;-63
2022/04/19 10:11:44;;;;;;;1.00;0.75;;;22.10;38.80;;;;;;4984951;28;20040;-61
2022/04/19 10:14:11;;;;;;;1.27;0.90;;;22.10;38.80;;;;;;4980608;28;20418;-62
2022/04/19 10:16:37;;;;;;;1.20;0.75;;;22.10;38.80;;;;;;4982845;28;20462;-62
2022/04/19 10:19:09;;;;;;;2.03;0.82;;;22.10;38.70;;;;;;4973208;28;20095;-61
2022/04/19 10:21:41;;;;;;;1.10;0.80;;;22.10;38.70;;;;;;4980411;28;20109;-62
2022/04/19 10:24:13;;;;;;;1.05;0.70;;;22.10;38.70;;;;;;4980650;28;20398;-64
2022/04/19 10:26:47;;;;;;;0.75;0.70;;;22.10;38.70;;;;;;4983084;28;20022;-62
2022/04/19 10:29:16;;;;;;;1.63;1.20;;;22.10;38.70;;;;;;4982557;28;20020;-63
2022/04/19 10:31:54;;;;;;;1.05;0.82;;;22.10;38.70;;;;;;4982380;28;20139;-64
2022/04/19 10:34:25;;;;;;;1.95;1.13;;;22.10;38.60;;;;;;4983630;28;20021;-64
2022/04/19 10:36:54;;;;;;;1.02;0.70;;;22.10;38.60;;;;;;4982124;28;20512;-65
2022/04/19 10:39:22;;;;;;;1.63;1.00;;;22.10;38.60;;;;;;4986858;28;20060;-64
2022/04/19 10:42:03;;;;;;;1.55;0.88;;;22.10;38.50;;;;;;4979332;28;20038;-64
2022/04/19 10:44:41;;;;;;;0.90;0.70;;;22.10;38.50;;;;;;4981689;28;20156;-63
2022/04/19 10:47:15;;;;;;;1.60;0.98;;;22.10;38.50;;;;;;4982160;28;20029;-66
2022/04/19 10:49:48;;;;;;;1.63;0.82;;;22.10;38.50;;;;;;4979501;28;20037;-65
2022/04/19 10:52:35;;;;;;;1.27;0.88;;;22.10;38.50;;;;;;4977845;28;20030;-65
2022/04/19 10:55:03;;;;;;;1.10;0.80;;;22.10;38.40;;;;;;4980882;28;20103;-65
2022/04/19 11:00:27;;;;;;;1.05;0.73;;;22.10;38.40;;;;;;4980168;28;20041;-65
2022/04/19 11:03:09;;;;;;;1.33;0.70;;;22.10;38.40;;;;;;4983286;28;20030;-65
2022/04/19 11:05:41;;;;;;;1.83;0.73;;;22.10;38.40;;;;;;4982724;28;20347;-65
2022/04/19 11:08:25;;;;;;;1.20;0.80;;;22.10;38.40;;;;;;4986917;28;20064;-64
2022/04/19 11:10:52;;;;;;;1.65;0.90;;;22.10;38.40;;;;;;4983560;28;20121;-66
2022/04/19 11:13:19;;;;;;;0.90;0.80;;;22.10;38.40;;;;;;4980680;28;20089;-66
2022/04/19 11:16:05;;;;;;;2.45;1.00;;;22.10;38.40;;;;;;4982930;28;20553;-63
2022/04/19 11:18:34;;;;;;;1.58;0.77;;;22.20;38.50;;;;;;5003269;28;20181;-67
2022/04/19 11:21:03;;;;;;;0.85;0.70;;;22.10;38.40;;;;;;4980667;28;20143;-63
2022/04/19 11:23:44;;;;;;;0.90;0.73;;;22.10;38.50;;;;;;4983268;28;20769;-64
2022/04/19 11:26:30;;;;;;;1.23;0.70;;;22.10;38.40;;;;;;4983741;28;20371;-65
2022/04/19 11:29:08;;;;;;;1.13;0.70;;;22.20;38.40;;;;;;4978679;28;20524;-65
2022/04/19 11:31:34;;;;;;;1.05;0.77;;;22.10;38.40;;;;;;4976373;28;20034;-66
2022/04/19 11:34:00;;;;;;;1.42;0.80;;;22.20;38.40;;;;;;4979824;28;20057;-66
2022/04/19 11:36:26;;;;;;;0.93;0.73;;;22.10;38.80;;;;;;4979963;28;20116;-65
2022/04/19 11:38:52;;;;;;;1.10;0.70;;;22.20;38.40;;;;;;4986478;28;20656;-65
2022/04/19 11:46:59;;;;;;;1.17;0.75;;;22.20;38.30;;;;;;4983359;28;20407;-65
2022/04/19 11:49:34;;;;;;;0.90;0.75;;;22.20;38.30;;;;;;4980753;28;20026;-66
2022/04/19 11:52:02;;;;;;;0.77;0.60;;;22.20;38.30;;;;;;4975801;28;20044;-66
2022/04/19 11:54:32;;;;;;;0.73;0.70;;;22.20;38.20;;;;;;4978732;28;20121;-66
2022/04/19 11:57:06;;;;;;;0.85;0.70;;;22.20;38.20;;;;;;4983220;28;20100;-66
2022/04/19 11:59:41;;;;;;;1.25;0.65;;;22.20;38.10;;;;;;4979006;28;20038;-62
2022/04/19 12:02:18;;;;;;;0.98;0.77;;;22.20;38.00;;;;;;4976666;28;20878;-66
2022/04/19 12:04:54;;;;;;;0.85;0.70;;;22.20;37.90;;;;;;4980685;28;20479;-65
2022/04/19 12:07:20;;;;;;;0.90;0.70;;;22.20;38.40;;;;;;4980531;28;20045;-65
2022/04/19 12:09:50;;;;;;;0.73;0.70;;;22.20;37.90;;;;;;4983690;28;20040;-65
2022/04/19 12:12:15;;;;;;;0.88;0.70;;;22.20;37.90;;;;;;4977797;28;20092;-65
2022/04/19 12:14:41;;;;;;;1.17;0.90;;;22.20;37.90;;;;;;4977584;28;20041;-65
2022/04/19 12:17:08;;;;;;;0.80;0.70;;;22.20;37.70;;;;;;4975803;28;20068;-66
2022/04/19 12:19:42;;;;;;;1.02;0.60;;;22.20;37.80;;;;;;4976432;28;20148;-65
2022/04/19 12:22:22;;;;;;;3.13;0.70;;;22.20;37.60;;;;;;4978612;28;20629;-65
2022/04/19 12:24:54;;;;;;;;;;;22.30;37.60;;;;;;4977200;28;20666;-63
2022/04/19 12:27:39;;;;;;;0.93;0.60;;;22.20;37.60;;;;;;4981266;28;19920;-65
2022/04/19 12:30:12;;;;;;;1.27;0.60;;;22.30;37.50;;;;;;4980426;28;20017;-66
2022/04/19 12:32:54;;;;;;;0.73;0.60;;;22.30;37.50;;;;;;4976723;28;20072;-66
2022/04/19 12:35:24;;;;;;;0.63;0.63;;;22.20;37.40;;;;;;4976388;28;20040;-65
2022/04/19 12:38:18;;;;;;;0.90;0.70;;;22.30;37.50;;;;;;4976844;28;20096;-66
2022/04/19 12:40:44;;;;;;;0.90;0.70;;;22.30;37.50;;;;;;4977009;28;20765;-65
2022/04/19 12:43:12;;;;;;;0.90;0.60;;;22.20;37.50;;;;;;4980937;28;20026;-66
2022/04/19 12:45:40;;;;;;;0.93;0.70;;;22.30;37.50;;;;;;4976967;28;20041;-65
2022/04/19 12:48:07;;;;;;;2.35;0.68;;;22.30;37.50;;;;;;4980281;28;20053;-65
2022/04/19 12:50:33;;;;;;;1.10;0.60;;;22.30;37.50;;;;;;4976161;28;20561;-65
2022/04/19 12:53:00;;;;;;;0.60;0.60;;;22.30;37.50;;;;;;4978306;28;20033;-65
2022/04/19 12:55:30;;;;;;;0.65;0.60;;;22.30;37.50;;;;;;4980751;28;20022;-65
2022/04/19 12:58:10;;;;;;;1.05;0.70;;;22.30;37.50;;;;;;4983743;28;20533;-64
2022/04/19 13:00:36;;;;;;;0.98;0.55;;;22.30;37.50;;;;;;4979752;28;20112;-64
2022/04/19 13:03:03;;;;;;;1.15;0.70;;;22.30;37.50;;;;;;4980303;28;20041;-64
2022/04/19 13:13:44;;;;;;;1.42;0.70;;;22.30;37.50;;;;;;4978406;28;20671;-65
2022/04/19 13:16:10;;;;;;;0.95;0.70;;;22.40;37.50;;;;;;4994713;28;20038;-65
2022/04/19 13:18:35;;;;;;;1.15;0.60;;;22.40;37.50;;;;;;4978165;28;20091;-64
2022/04/19 13:21:02;;;;;;;1.25;0.60;;;22.40;37.50;;;;;;4980790;28;20030;-64
2022/04/19 13:23:27;;;;;;;1.13;0.70;;;22.40;37.50;;;;;;4978731;28;20026;-63
2022/04/19 13:25:54;;;;;;;0.85;0.60;;;22.40;37.50;;;;;;4979963;28;20038;-64
2022/04/19 13:28:19;;;;;;;0.50;0.50;;;22.40;37.50;;;;;;4979437;28;20045;-64
2022/04/19 13:30:45;;;;;;;2.05;0.70;;;22.40;37.60;;;;;;4976873;28;20041;-63
2022/04/19 13:33:11;;;;;;;0.80;0.60;;;22.40;37.60;;;;;;4976660;28;20132;-64
2022/04/19 13:35:36;;;;;;;0.60;0.60;;;22.40;37.60;;;;;;4979992;28;20069;-63
2022/04/19 13:40:46;;;;;;;0.50;0.50;;;22.50;37.60;;;;;;4987774;28;21186;-63
2022/04/19 13:43:12;;;;;;;0.68;0.50;;;22.50;37.70;;;;;;4995189;28;20026;-64